sensor_id;sensor_type;location;lat;lon;timestamp;P1;P2;P0
77516;PMS7003;68414;53.946;27.634;2024-01-15T00:00:40;2.350000;2.166667;1.716667
77516;PMS7003;68414;53.946;27.634;2024-01-15T00:02:38;2.900000;1.666667;1.316667
77516;PMS7003;68414;53.946;27.634;2024-01-15T00:03:38;3.200000;2.600000;1.983333
77516;PMS7003;68414;53.946;27.634;2024-01-15T00:04:40;2.333333;2.083333;1.766667
77516;PMS7003;68414;53.946;27.634;2024-01-15T00:05:38;3.216667;2.350000;1.816667
77516;PMS7003;68414;53.946;27.634;2024-01-15T00:06:38;2.216667;2.216667;1.733333
77516;PMS7003;68414;53.946;27.634;2024-01-15T00:07:38;2.466667;2.250000;1.883333
77516;PMS7003;68414;53.946;27.634;2024-01-15T00:08:38;2.383333;2.200000;1.933333
77516;PMS7003;68414;53.946;27.634;2024-01-15T00:09:39;2.316667;2.316667;1.666667
77516;PMS7003;68414;53.946;27.634;2024-01-15T00:10:38;2.550000;2.233333;1.816667
77516;PMS7003;68414;53.946;27.634;2024-01-15T00:11:38;3.133333;2.116667;1.850000
77516;PMS7003;68414;53.946;27.634;2024-01-15T00:12:38;2.600000;2.250000;1.783333
77516;PMS7003;68414;53.946;27.634;2024-01-15T00:13:38;3.200000;2.583333;2.183333
77516;PMS7003;68414;53.946;27.634;2024-01-15T00:14:41;2.000000;1.866667;1.566667
77516;PMS7003;68414;53.946;27.634;2024-01-15T00:15:38;2.983333;2.600000;2.216667
77516;PMS7003;68414;53.946;27.634;2024-01-15T00:16:40;2.583333;2.466667;1.750000
77516;PMS7003;68414;53.946;27.634;2024-01-15T00:17:39;3.150000;2.483333;1.933333
77516;PMS7003;68414;53.946;27.634;2024-01-15T00:18:38;3.050000;3.050000;2.383333
77516;PMS7003;68414;53.946;27.634;2024-01-15T00:19:38;3.183333;3.183333;2.483333
77516;PMS7003;68414;53.946;27.634;2024-01-15T00:20:38;3.333333;2.366667;1.866667
77516;PMS7003;68414;53.946;27.634;2024-01-15T00:21:38;2.516667;2.516667;2.200000
77516;PMS7003;68414;53.946;27.634;2024-01-15T00:22:39;3.800000;3.283333;2.216667
77516;PMS7003;68414;53.946;27.634;2024-01-15T00:24:38;3.500000;3.333333;2.816667
77516;PMS7003;68414;53.946;27.634;2024-01-15T00:25:38;3.216667;2.883333;2.100000
77516;PMS7003;68414;53.946;27.634;2024-01-15T00:26:38;2.950000;2.783333;1.950000
77516;PMS7003;68414;53.946;27.634;2024-01-15T00:27:40;3.933333;3.266667;2.583333
77516;PMS7003;68414;53.946;27.634;2024-01-15T00:28:40;4.166667;3.700000;2.950000
77516;PMS7003;68414;53.946;27.634;2024-01-15T00:29:38;2.950000;2.950000;2.283333
77516;PMS7003;68414;53.946;27.634;2024-01-15T00:30:38;3.533333;3.083333;2.566667
77516;PMS7003;68414;53.946;27.634;2024-01-15T00:31:38;3.266667;3.033333;2.233333
77516;PMS7003;68414;53.946;27.634;2024-01-15T00:32:38;2.800000;2.566667;1.916667
77516;PMS7003;68414;53.946;27.634;2024-01-15T00:33:38;3.150000;2.750000;2.066667
77516;PMS7003;68414;53.946;27.634;2024-01-15T00:34:38;3.183333;3.183333;2.350000
77516;PMS7003;68414;53.946;27.634;2024-01-15T00:35:38;4.150000;3.583333;2.600000
77516;PMS7003;68414;53.946;27.634;2024-01-15T00:36:38;3.933333;3.483333;2.916667
77516;PMS7003;68414;53.946;27.634;2024-01-15T00:37:38;3.933333;3.016667;2.366667
77516;PMS7003;68414;53.946;27.634;2024-01-15T00:38:38;3.733333;2.850000;2.300000
77516;PMS7003;68414;53.946;27.634;2024-01-15T00:39:38;3.700000;3.633333;2.866667
77516;PMS7003;68414;53.946;27.634;2024-01-15T00:40:38;2.733333;2.733333;2.166667
77516;PMS7003;68414;53.946;27.634;2024-01-15T00:41:38;3.900000;3.500000;2.666667
77516;PMS7003;68414;53.946;27.634;2024-01-15T00:42:38;3.550000;3.066667;2.366667
77516;PMS7003;68414;53.946;27.634;2024-01-15T00:43:38;3.150000;2.816667;2.033333
77516;PMS7003;68414;53.946;27.634;2024-01-15T00:44:38;4.450000;3.166667;2.733333
77516;PMS7003;68414;53.946;27.634;2024-01-15T00:45:38;3.950000;3.600000;2.650000
77516;PMS7003;68414;53.946;27.634;2024-01-15T00:47:38;3.566667;3.133333;2.150000
77516;PMS7003;68414;53.946;27.634;2024-01-15T00:48:38;3.633333;3.216667;2.633333
77516;PMS7003;68414;53.946;27.634;2024-01-15T00:49:38;3.083333;3.083333;2.600000
77516;PMS7003;68414;53.946;27.634;2024-01-15T00:50:38;3.750000;3.750000;2.850000
77516;PMS7003;68414;53.946;27.634;2024-01-15T00:51:38;5.300000;3.683333;2.633333
77516;PMS7003;68414;53.946;27.634;2024-01-15T00:52:38;4.416667;3.566667;2.500000
77516;PMS7003;68414;53.946;27.634;2024-01-15T00:53:38;2.583333;2.583333;2.000000
77516;PMS7003;68414;53.946;27.634;2024-01-15T00:54:38;3.316667;3.066667;2.383333
77516;PMS7003;68414;53.946;27.634;2024-01-15T00:55:38;3.900000;3.650000;2.716667
77516;PMS7003;68414;53.946;27.634;2024-01-15T00:56:38;3.750000;3.133333;2.333333
77516;PMS7003;68414;53.946;27.634;2024-01-15T00:57:39;4.500000;3.983333;3.283333
77516;PMS7003;68414;53.946;27.634;2024-01-15T00:58:38;4.383333;4.383333;3.233333
77516;PMS7003;68414;53.946;27.634;2024-01-15T00:59:38;4.733333;4.050000;3.316667
77516;PMS7003;68414;53.946;27.634;2024-01-15T01:00:38;4.033333;3.250000;2.883333
77516;PMS7003;68414;53.946;27.634;2024-01-15T01:01:38;5.066667;4.550000;3.216667
77516;PMS7003;68414;53.946;27.634;2024-01-15T01:02:38;4.316667;3.933333;3.100000
77516;PMS7003;68414;53.946;27.634;2024-01-15T01:03:38;3.650000;3.650000;2.916667
77516;PMS7003;68414;53.946;27.634;2024-01-15T01:04:38;3.483333;3.316667;2.733333
77516;PMS7003;68414;53.946;27.634;2024-01-15T01:05:38;4.716667;3.316667;2.483333
77516;PMS7003;68414;53.946;27.634;2024-01-15T01:06:38;5.133333;4.716667;3.283333
77516;PMS7003;68414;53.946;27.634;2024-01-15T01:07:39;4.133333;3.650000;3.166667
77516;PMS7003;68414;53.946;27.634;2024-01-15T01:08:38;3.966667;3.316667;2.350000
77516;PMS7003;68414;53.946;27.634;2024-01-15T01:09:38;5.450000;4.100000;3.133333
77516;PMS7003;68414;53.946;27.634;2024-01-15T01:10:38;3.633333;3.083333;2.466667
77516;PMS7003;68414;53.946;27.634;2024-01-15T01:11:38;5.400000;3.800000;2.866667
77516;PMS7003;68414;53.946;27.634;2024-01-15T01:12:38;4.750000;4.250000;3.433333
77516;PMS7003;68414;53.946;27.634;2024-01-15T01:13:38;3.383333;3.066667;2.416667
77516;PMS7003;68414;53.946;27.634;2024-01-15T01:14:38;4.783333;4.250000;3.150000
77516;PMS7003;68414;53.946;27.634;2024-01-15T01:15:38;4.633333;3.850000;2.900000
77516;PMS7003;68414;53.946;27.634;2024-01-15T01:16:40;4.300000;4.300000;3.233333
77516;PMS7003;68414;53.946;27.634;2024-01-15T01:17:38;4.066667;3.150000;2.750000
77516;PMS7003;68414;53.946;27.634;2024-01-15T01:18:38;5.450000;4.916667;3.100000
77516;PMS7003;68414;53.946;27.634;2024-01-15T01:19:38;5.783333;4.283333;3.216667
77516;PMS7003;68414;53.946;27.634;2024-01-15T01:20:38;4.416667;3.933333;2.966667
77516;PMS7003;68414;53.946;27.634;2024-01-15T01:21:38;5.166667;3.900000;2.983333
77516;PMS7003;68414;53.946;27.634;2024-01-15T01:22:38;3.600000;3.166667;2.816667
77516;PMS7003;68414;53.946;27.634;2024-01-15T01:23:38;4.066667;3.483333;2.783333
77516;PMS7003;68414;53.946;27.634;2024-01-15T01:24:40;3.966667;3.433333;2.816667
77516;PMS7003;68414;53.946;27.634;2024-01-15T01:25:38;3.916667;3.700000;3.033333
77516;PMS7003;68414;53.946;27.634;2024-01-15T01:26:38;5.516667;3.883333;2.916667
77516;PMS7003;68414;53.946;27.634;2024-01-15T01:27:38;5.233333;3.700000;2.816667
77516;PMS7003;68414;53.946;27.634;2024-01-15T01:28:38;3.633333;3.550000;2.916667
77516;PMS7003;68414;53.946;27.634;2024-01-15T01:29:38;3.650000;2.733333;2.116667
77516;PMS7003;68414;53.946;27.634;2024-01-15T01:30:38;3.733333;3.100000;2.300000
77516;PMS7003;68414;53.946;27.634;2024-01-15T01:32:38;2.650000;2.433333;2.050000
77516;PMS7003;68414;53.946;27.634;2024-01-15T01:33:39;2.783333;2.766667;2.383333
77516;PMS7003;68414;53.946;27.634;2024-01-15T01:34:40;3.350000;2.983333;2.216667
77516;PMS7003;68414;53.946;27.634;2024-01-15T01:35:38;3.400000;2.333333;1.750000
77516;PMS7003;68414;53.946;27.634;2024-01-15T01:36:42;3.216667;2.983333;2.666667
77516;PMS7003;68414;53.946;27.634;2024-01-15T01:37:39;3.700000;2.733333;2.216667
77516;PMS7003;68414;53.946;27.634;2024-01-15T01:38:39;4.300000;3.633333;2.916667
77516;PMS7003;68414;53.946;27.634;2024-01-15T01:39:38;3.983333;3.983333;3.250000
77516;PMS7003;68414;53.946;27.634;2024-01-15T01:40:41;4.350000;4.000000;2.916667
77516;PMS7003;68414;53.946;27.634;2024-01-15T01:42:40;3.900000;3.100000;2.166667
77516;PMS7003;68414;53.946;27.634;2024-01-15T01:43:38;3.433333;3.250000;2.600000
77516;PMS7003;68414;53.946;27.634;2024-01-15T01:44:38;3.766667;3.400000;2.350000
77516;PMS7003;68414;53.946;27.634;2024-01-15T01:45:39;3.650000;3.116667;2.466667
77516;PMS7003;68414;53.946;27.634;2024-01-15T01:46:38;3.650000;3.083333;2.433333
77516;PMS7003;68414;53.946;27.634;2024-01-15T01:47:42;3.566667;3.150000;2.250000
77516;PMS7003;68414;53.946;27.634;2024-01-15T01:48:39;3.900000;3.616667;2.866667
77516;PMS7003;68414;53.946;27.634;2024-01-15T01:49:38;3.016667;3.016667;2.283333
77516;PMS7003;68414;53.946;27.634;2024-01-15T01:50:38;2.966667;2.883333;2.316667
77516;PMS7003;68414;53.946;27.634;2024-01-15T01:51:38;4.916667;3.633333;2.833333
77516;PMS7003;68414;53.946;27.634;2024-01-15T01:52:40;4.400000;3.616667;2.450000
77516;PMS7003;68414;53.946;27.634;2024-01-15T01:53:39;3.566667;3.366667;2.816667
77516;PMS7003;68414;53.946;27.634;2024-01-15T01:54:44;4.933333;4.600000;3.183333
77516;PMS7003;68414;53.946;27.634;2024-01-15T01:55:43;4.350000;3.750000;3.033333
77516;PMS7003;68414;53.946;27.634;2024-01-15T01:56:41;5.700000;4.233333;3.233333
77516;PMS7003;68414;53.946;27.634;2024-01-15T01:57:40;4.800000;3.950000;2.616667
77516;PMS7003;68414;53.946;27.634;2024-01-15T01:58:38;4.316667;3.466667;2.533333
77516;PMS7003;68414;53.946;27.634;2024-01-15T01:59:39;3.916667;3.583333;2.766667
77516;PMS7003;68414;53.946;27.634;2024-01-15T02:00:41;6.566667;5.050000;3.716667
77516;PMS7003;68414;53.946;27.634;2024-01-15T02:01:43;5.900000;3.900000;3.100000
77516;PMS7003;68414;53.946;27.634;2024-01-15T02:02:38;6.383333;5.150000;3.666667
77516;PMS7003;68414;53.946;27.634;2024-01-15T02:03:39;6.583333;6.116667;3.800000
77516;PMS7003;68414;53.946;27.634;2024-01-15T02:04:49;5.366667;4.966667;3.650000
77516;PMS7003;68414;53.946;27.634;2024-01-15T02:05:45;5.216667;4.166667;3.416667
77516;PMS7003;68414;53.946;27.634;2024-01-15T02:06:38;5.766667;4.333333;3.216667
77516;PMS7003;68414;53.946;27.634;2024-01-15T02:07:38;4.833333;4.533333;3.483333
77516;PMS7003;68414;53.946;27.634;2024-01-15T02:08:38;6.216667;5.216667;4.033333
77516;PMS7003;68414;53.946;27.634;2024-01-15T02:09:38;4.766667;4.666667;2.983333
77516;PMS7003;68414;53.946;27.634;2024-01-15T02:10:38;6.266667;4.933333;3.733333
77516;PMS7003;68414;53.946;27.634;2024-01-15T02:11:40;6.383333;5.566667;3.816667
77516;PMS7003;68414;53.946;27.634;2024-01-15T02:12:38;7.100000;5.600000;4.133333
77516;PMS7003;68414;53.946;27.634;2024-01-15T02:13:39;5.983333;4.433333;3.400000
77516;PMS7003;68414;53.946;27.634;2024-01-15T02:14:40;5.300000;4.483333;3.583333
77516;PMS7003;68414;53.946;27.634;2024-01-15T02:15:38;6.616667;5.483333;3.766667
77516;PMS7003;68414;53.946;27.634;2024-01-15T02:19:42;6.933333;4.766667;3.316667
77516;PMS7003;68414;53.946;27.634;2024-01-15T02:20:38;6.100000;4.466667;3.083333
77516;PMS7003;68414;53.946;27.634;2024-01-15T02:21:40;5.133333;4.750000;3.133333
77516;PMS7003;68414;53.946;27.634;2024-01-15T02:22:40;5.750000;4.000000;2.883333
77516;PMS7003;68414;53.946;27.634;2024-01-15T02:23:39;5.133333;4.650000;3.216667
77516;PMS7003;68414;53.946;27.634;2024-01-15T02:24:38;6.100000;5.666667;3.983333
77516;PMS7003;68414;53.946;27.634;2024-01-15T02:25:40;5.600000;5.066667;4.116667
77516;PMS7003;68414;53.946;27.634;2024-01-15T02:26:39;4.833333;4.800000;3.733333
77516;PMS7003;68414;53.946;27.634;2024-01-15T02:27:39;5.033333;5.033333;3.600000
77516;PMS7003;68414;53.946;27.634;2024-01-15T02:28:41;4.900000;4.900000;3.816667
77516;PMS7003;68414;53.946;27.634;2024-01-15T02:29:43;5.650000;5.216667;3.666667
77516;PMS7003;68414;53.946;27.634;2024-01-15T02:30:44;6.450000;6.050000;3.716667
77516;PMS7003;68414;53.946;27.634;2024-01-15T02:31:41;9.033334;7.133333;4.650000
77516;PMS7003;68414;53.946;27.634;2024-01-15T02:32:40;5.633333;5.616667;4.133333
77516;PMS7003;68414;53.946;27.634;2024-01-15T02:33:39;5.133333;4.466667;3.516667
77516;PMS7003;68414;53.946;27.634;2024-01-15T02:34:38;5.383333;4.466667;3.516667
77516;PMS7003;68414;53.946;27.634;2024-01-15T02:35:38;6.533333;5.300000;4.250000
77516;PMS7003;68414;53.946;27.634;2024-01-15T02:36:38;7.900000;6.716667;4.333333
77516;PMS7003;68414;53.946;27.634;2024-01-15T02:37:38;7.733333;5.300000;3.800000
77516;PMS7003;68414;53.946;27.634;2024-01-15T02:38:38;7.200000;5.383333;4.133333
77516;PMS7003;68414;53.946;27.634;2024-01-15T02:39:38;8.250000;5.116667;4.116667
77516;PMS7003;68414;53.946;27.634;2024-01-15T02:40:38;7.766667;6.783333;4.616667
77516;PMS7003;68414;53.946;27.634;2024-01-15T02:41:42;7.316667;6.033333;4.333333
77516;PMS7003;68414;53.946;27.634;2024-01-15T02:42:41;8.700000;7.233333;4.466667
77516;PMS7003;68414;53.946;27.634;2024-01-15T02:43:38;8.033334;7.566667;4.700000
77516;PMS7003;68414;53.946;27.634;2024-01-15T02:44:38;6.800000;5.750000;4.300000
77516;PMS7003;68414;53.946;27.634;2024-01-15T02:45:38;7.766667;6.016667;4.066667
77516;PMS7003;68414;53.946;27.634;2024-01-15T02:46:38;5.683333;4.850000;4.200000
77516;PMS7003;68414;53.946;27.634;2024-01-15T02:47:38;7.666667;6.766667;4.083333
77516;PMS7003;68414;53.946;27.634;2024-01-15T02:48:39;7.150000;6.883333;4.133333
77516;PMS7003;68414;53.946;27.634;2024-01-15T02:49:39;7.916667;6.416667;4.133333
77516;PMS7003;68414;53.946;27.634;2024-01-15T02:50:39;7.000000;5.883333;4.233333
77516;PMS7003;68414;53.946;27.634;2024-01-15T02:51:46;9.566667;6.916667;5.000000
77516;PMS7003;68414;53.946;27.634;2024-01-15T02:52:43;7.116667;6.566667;4.416667
77516;PMS7003;68414;53.946;27.634;2024-01-15T02:53:40;7.600000;5.716667;4.083333
77516;PMS7003;68414;53.946;27.634;2024-01-15T02:54:38;7.250000;6.583333;4.116667
77516;PMS7003;68414;53.946;27.634;2024-01-15T02:55:38;7.050000;5.216667;4.050000
77516;PMS7003;68414;53.946;27.634;2024-01-15T02:56:39;7.016667;5.016667;4.066667
77516;PMS7003;68414;53.946;27.634;2024-01-15T02:57:39;8.200000;6.800000;4.183333
77516;PMS7003;68414;53.946;27.634;2024-01-15T02:58:38;6.916667;6.483333;4.350000
77516;PMS7003;68414;53.946;27.634;2024-01-15T02:59:38;9.300000;6.616667;4.733333
77516;PMS7003;68414;53.946;27.634;2024-01-15T03:00:38;6.216667;5.100000;3.833333
77516;PMS7003;68414;53.946;27.634;2024-01-15T03:01:38;5.616667;5.550000;4.166667
77516;PMS7003;68414;53.946;27.634;2024-01-15T03:02:39;7.216667;5.416667;4.133333
77516;PMS7003;68414;53.946;27.634;2024-01-15T03:03:40;6.950000;4.716667;3.500000
77516;PMS7003;68414;53.946;27.634;2024-01-15T03:04:42;7.133333;5.616667;3.883333
77516;PMS7003;68414;53.946;27.634;2024-01-15T03:05:38;5.366667;5.083333;3.833333
77516;PMS7003;68414;53.946;27.634;2024-01-15T03:06:38;6.033333;5.233333;3.816667
77516;PMS7003;68414;53.946;27.634;2024-01-15T03:07:38;5.166667;4.916667;3.583333
77516;PMS7003;68414;53.946;27.634;2024-01-15T03:08:38;6.666667;5.133333;3.266667
77516;PMS7003;68414;53.946;27.634;2024-01-15T03:09:38;6.733333;5.966667;4.233333
77516;PMS7003;68414;53.946;27.634;2024-01-15T03:10:39;6.466667;5.233333;3.750000
77516;PMS7003;68414;53.946;27.634;2024-01-15T03:11:38;7.250000;5.666667;3.966667
77516;PMS7003;68414;53.946;27.634;2024-01-15T03:12:37;4.883333;4.766667;3.316667
77516;PMS7003;68414;53.946;27.634;2024-01-15T03:13:37;6.383333;5.216667;4.150000
77516;PMS7003;68414;53.946;27.634;2024-01-15T03:14:37;7.000000;6.166667;4.350000
77516;PMS7003;68414;53.946;27.634;2024-01-15T03:15:38;5.416667;5.383333;3.950000
77516;PMS7003;68414;53.946;27.634;2024-01-15T03:16:38;8.333333;6.933333;3.700000
77516;PMS7003;68414;53.946;27.634;2024-01-15T03:17:40;7.150000;5.800000;3.950000
77516;PMS7003;68414;53.946;27.634;2024-01-15T03:18:38;6.933333;5.900000;4.533333
77516;PMS7003;68414;53.946;27.634;2024-01-15T03:19:38;7.216667;5.800000;4.400000
77516;PMS7003;68414;53.946;27.634;2024-01-15T03:20:37;6.166667;5.150000;3.633333
77516;PMS7003;68414;53.946;27.634;2024-01-15T03:21:37;7.850000;6.416667;4.116667
77516;PMS7003;68414;53.946;27.634;2024-01-15T03:22:38;7.216667;6.316667;4.183333
77516;PMS7003;68414;53.946;27.634;2024-01-15T03:23:37;6.683333;6.300000;4.633333
77516;PMS7003;68414;53.946;27.634;2024-01-15T03:24:39;10.350000;7.150000;5.650000
77516;PMS7003;68414;53.946;27.634;2024-01-15T03:25:38;8.383333;7.000000;5.433333
77516;PMS7003;68414;53.946;27.634;2024-01-15T03:26:38;7.266667;6.033333;4.150000
77516;PMS7003;68414;53.946;27.634;2024-01-15T03:27:38;8.716666;7.066667;4.616667
77516;PMS7003;68414;53.946;27.634;2024-01-15T03:28:38;6.900000;5.966667;3.566667
77516;PMS7003;68414;53.946;27.634;2024-01-15T03:29:39;7.766667;6.333333;4.550000
77516;PMS7003;68414;53.946;27.634;2024-01-15T03:30:37;8.133333;7.333333;5.416667
77516;PMS7003;68414;53.946;27.634;2024-01-15T03:31:37;8.083333;7.733333;4.550000
77516;PMS7003;68414;53.946;27.634;2024-01-15T03:32:37;7.516667;5.333333;3.516667
77516;PMS7003;68414;53.946;27.634;2024-01-15T03:33:37;9.300000;6.750000;4.266667
77516;PMS7003;68414;53.946;27.634;2024-01-15T03:34:37;7.900000;6.166667;4.716667
77516;PMS7003;68414;53.946;27.634;2024-01-15T03:35:39;8.183333;6.266667;4.133333
77516;PMS7003;68414;53.946;27.634;2024-01-15T03:36:38;7.033333;5.300000;3.983333
77516;PMS7003;68414;53.946;27.634;2024-01-15T03:37:38;7.216667;6.383333;4.366667
77516;PMS7003;68414;53.946;27.634;2024-01-15T03:38:40;11.116667;9.400000;7.366667
77516;PMS7003;68414;53.946;27.634;2024-01-15T03:39:37;7.150000;6.233333;4.233333
77516;PMS7003;68414;53.946;27.634;2024-01-15T03:40:37;5.683333;5.433333;4.033333
77516;PMS7003;68414;53.946;27.634;2024-01-15T03:41:37;6.083333;5.516667;4.133333
77516;PMS7003;68414;53.946;27.634;2024-01-15T03:42:38;7.633333;6.783333;4.766667
77516;PMS7003;68414;53.946;27.634;2024-01-15T03:43:38;6.883333;5.566667;3.966667
77516;PMS7003;68414;53.946;27.634;2024-01-15T03:44:38;7.716667;6.150000;4.266667
77516;PMS7003;68414;53.946;27.634;2024-01-15T03:45:38;7.283333;5.050000;4.350000
77516;PMS7003;68414;53.946;27.634;2024-01-15T03:46:40;8.266666;7.083333;5.200000
77516;PMS7003;68414;53.946;27.634;2024-01-15T03:47:38;7.100000;6.200000;4.733333
77516;PMS7003;68414;53.946;27.634;2024-01-15T03:48:38;9.600000;7.733333;4.516667
77516;PMS7003;68414;53.946;27.634;2024-01-15T03:49:37;7.500000;6.950000;5.383333
77516;PMS7003;68414;53.946;27.634;2024-01-15T03:50:37;8.383333;7.583333;4.650000
77516;PMS7003;68414;53.946;27.634;2024-01-15T03:51:39;8.483334;7.600000;5.366667
77516;PMS7003;68414;53.946;27.634;2024-01-15T03:52:38;8.916667;7.966667;5.833333
77516;PMS7003;68414;53.946;27.634;2024-01-15T03:53:38;7.516667;6.816667;4.566667
77516;PMS7003;68414;53.946;27.634;2024-01-15T03:54:38;8.016666;5.933333;3.966667
77516;PMS7003;68414;53.946;27.634;2024-01-15T03:55:40;7.216667;6.750000;3.883333
77516;PMS7003;68414;53.946;27.634;2024-01-15T03:56:38;6.950000;6.133333;4.366667
77516;PMS7003;68414;53.946;27.634;2024-01-15T03:57:39;7.783333;7.000000;5.033333
77516;PMS7003;68414;53.946;27.634;2024-01-15T03:58:38;7.583333;7.083333;4.500000
77516;PMS7003;68414;53.946;27.634;2024-01-15T03:59:37;6.650000;5.983333;4.183333
77516;PMS7003;68414;53.946;27.634;2024-01-15T04:00:37;6.733333;5.666667;4.116667
77516;PMS7003;68414;53.946;27.634;2024-01-15T04:01:37;7.150000;6.166667;4.516667
77516;PMS7003;68414;53.946;27.634;2024-01-15T04:02:38;7.366667;6.300000;4.450000
77516;PMS7003;68414;53.946;27.634;2024-01-15T04:03:38;6.916667;5.433333;3.966667
77516;PMS7003;68414;53.946;27.634;2024-01-15T04:05:38;11.233334;8.066667;5.250000
77516;PMS7003;68414;53.946;27.634;2024-01-15T04:06:38;7.483333;5.950000;4.433333
77516;PMS7003;68414;53.946;27.634;2024-01-15T04:07:38;8.833333;7.783333;5.050000
77516;PMS7003;68414;53.946;27.634;2024-01-15T04:08:38;7.916667;6.066667;4.300000
77516;PMS7003;68414;53.946;27.634;2024-01-15T04:09:38;7.450000;6.950000;4.866667
77516;PMS7003;68414;53.946;27.634;2024-01-15T04:10:37;11.116667;10.516666;6.600000
77516;PMS7003;68414;53.946;27.634;2024-01-15T04:11:37;7.933333;5.366667;3.666667
77516;PMS7003;68414;53.946;27.634;2024-01-15T04:12:37;7.533333;6.116667;4.066667
77516;PMS7003;68414;53.946;27.634;2024-01-15T04:13:38;6.983333;5.800000;4.433333
77516;PMS7003;68414;53.946;27.634;2024-01-15T04:14:38;10.066667;7.600000;5.433333
77516;PMS7003;68414;53.946;27.634;2024-01-15T04:15:39;7.533333;6.516667;4.316667
77516;PMS7003;68414;53.946;27.634;2024-01-15T04:16:38;7.200000;5.866667;4.150000
77516;PMS7003;68414;53.946;27.634;2024-01-15T04:17:38;7.900000;6.200000;4.116667
77516;PMS7003;68414;53.946;27.634;2024-01-15T04:18:38;7.800000;6.416667;4.183333
77516;PMS7003;68414;53.946;27.634;2024-01-15T04:19:37;8.383333;7.650000;5.083333
77516;PMS7003;68414;53.946;27.634;2024-01-15T04:20:37;9.200000;7.900000;4.550000
77516;PMS7003;68414;53.946;27.634;2024-01-15T04:21:37;10.633333;8.316667;5.533333
77516;PMS7003;68414;53.946;27.634;2024-01-15T04:22:37;10.516666;9.300000;6.300000
77516;PMS7003;68414;53.946;27.634;2024-01-15T04:23:39;8.950000;8.066667;5.066667
77516;PMS7003;68414;53.946;27.634;2024-01-15T04:24:38;8.500000;7.333333;4.650000
77516;PMS7003;68414;53.946;27.634;2024-01-15T04:25:38;8.200000;6.166667;3.966667
77516;PMS7003;68414;53.946;27.634;2024-01-15T04:26:38;8.700000;7.100000;4.600000
77516;PMS7003;68414;53.946;27.634;2024-01-15T04:27:38;7.983333;6.816667;4.233333
77516;PMS7003;68414;53.946;27.634;2024-01-15T04:28:38;10.900000;9.733334;4.933333
77516;PMS7003;68414;53.946;27.634;2024-01-15T04:29:38;11.233334;9.233334;5.166667
77516;PMS7003;68414;53.946;27.634;2024-01-15T04:30:37;8.900000;7.683333;5.666667
77516;PMS7003;68414;53.946;27.634;2024-01-15T04:31:37;10.400000;9.383333;6.383333
77516;PMS7003;68414;53.946;27.634;2024-01-15T04:32:37;11.650000;9.833333;6.616667
77516;PMS7003;68414;53.946;27.634;2024-01-15T04:33:37;11.250000;9.783334;6.716667
77516;PMS7003;68414;53.946;27.634;2024-01-15T04:34:38;14.816667;12.150000;8.000000
77516;PMS7003;68414;53.946;27.634;2024-01-15T04:35:38;14.116667;12.066667;7.866667
77516;PMS7003;68414;53.946;27.634;2024-01-15T04:36:39;14.183333;10.816667;8.083333
77516;PMS7003;68414;53.946;27.634;2024-01-15T04:37:38;13.116667;11.116667;7.100000
77516;PMS7003;68414;53.946;27.634;2024-01-15T04:38:38;12.666667;12.116667;8.650000
77516;PMS7003;68414;53.946;27.634;2024-01-15T04:39:37;12.733334;12.433333;8.833333
77516;PMS7003;68414;53.946;27.634;2024-01-15T04:40:37;11.150000;9.400000;5.883333
77516;PMS7003;68414;53.946;27.634;2024-01-15T04:41:37;10.150000;8.866667;5.850000
77516;PMS7003;68414;53.946;27.634;2024-01-15T04:42:37;10.250000;8.383333;5.750000
77516;PMS7003;68414;53.946;27.634;2024-01-15T04:43:37;11.566667;8.650000;5.950000
77516;PMS7003;68414;53.946;27.634;2024-01-15T04:44:38;9.933333;8.133333;5.566667
77516;PMS7003;68414;53.946;27.634;2024-01-15T04:45:38;10.066667;8.766666;6.183333
77516;PMS7003;68414;53.946;27.634;2024-01-15T04:46:38;11.316667;10.800000;5.933333
77516;PMS7003;68414;53.946;27.634;2024-01-15T04:47:38;11.083333;9.966666;7.016667
77516;PMS7003;68414;53.946;27.634;2024-01-15T04:48:38;11.616667;11.400000;7.900000
77516;PMS7003;68414;53.946;27.634;2024-01-15T04:49:37;11.133333;9.966666;7.433333
77516;PMS7003;68414;53.946;27.634;2024-01-15T04:50:38;10.850000;9.266666;6.500000
77516;PMS7003;68414;53.946;27.634;2024-01-15T04:51:38;9.383333;8.000000;5.200000
77516;PMS7003;68414;53.946;27.634;2024-01-15T04:52:37;9.400000;8.116667;6.266667
77516;PMS7003;68414;53.946;27.634;2024-01-15T04:53:37;10.250000;9.133333;6.416667
77516;PMS7003;68414;53.946;27.634;2024-01-15T04:54:38;11.950000;10.450000;6.783333
77516;PMS7003;68414;53.946;27.634;2024-01-15T04:55:39;9.266666;9.266666;6.250000
77516;PMS7003;68414;53.946;27.634;2024-01-15T04:56:38;10.150000;9.766666;6.733333
77516;PMS7003;68414;53.946;27.634;2024-01-15T04:57:38;11.250000;10.716666;8.100000
77516;PMS7003;68414;53.946;27.634;2024-01-15T04:58:38;12.550000;10.166667;6.833333
77516;PMS7003;68414;53.946;27.634;2024-01-15T04:59:37;9.950000;9.266666;7.050000
77516;PMS7003;68414;53.946;27.634;2024-01-15T05:00:37;11.550000;10.100000;6.950000
77516;PMS7003;68414;53.946;27.634;2024-01-15T05:01:37;10.483334;9.866667;6.016667
77516;PMS7003;68414;53.946;27.634;2024-01-15T05:02:37;11.200000;10.333333;7.883333